Time;durP1;ratioP1;P1;durP2;ratioP2;P2;SDS_P1;SDS_P2;PMS_P1;PMS_P2;Temp;Humidity;BMP_temperature;BMP_pressure;BME280_temperature;BME280_humidity;BME280_pressure;Samples;Min_cycle;Max_cycle;Signal;HPM_P1;HPM_P2
2021/06/11 00:01:51;;;;;;;19.13;11.30;;;;;;;23.78;40.17;101985.63;4156620;28;20033;-62
2021/06/11 00:03:52;;;;;;;17.10;11.02;;;;;;;23.42;40.77;101983.75;4153123;28;20042;-62
2021/06/11 00:05:52;;;;;;;23.90;13.20;;;;;;;23.21;41.05;101977.34;4154600;28;20128;-64
2021/06/11 00:07:53;;;;;;;25.88;13.60;;;;;;;23.45;40.50;101980.41;4155517;28;20103;-64
2021/06/11 00:09:53;;;;;;;22.17;12.23;;;;;;;23.55;40.50;101978.72;4156847;28;20037;-63
2021/06/11 00:11:55;;;;;;;19.10;11.60;;;;;;;23.67;39.85;101954.06;4154195;28;20581;-63
2021/06/11 00:13:56;;;;;;;27.20;12.55;;;;;;;23.39;40.78;101984.34;4152822;28;20049;-62
2021/06/11 00:15:56;;;;;;;21.13;12.18;;;;;;;23.49;40.35;101984.28;4149788;28;20806;-62
2021/06/11 00:17:57;;;;;;;21.65;11.90;;;;;;;23.66;40.02;101978.38;4157240;28;20060;-62
2021/06/11 00:19:57;;;;;;;25.02;13.23;;;;;;;23.41;40.59;101979.28;4156269;28;20033;-63
2021/06/11 00:21:59;;;;;;;22.65;11.98;;;;;;;23.21;40.79;101988.50;4159175;28;20411;-63
2021/06/11 00:24:00;;;;;;;20.17;11.50;;;;;;;23.02;41.41;101991.06;4154339;28;20064;-64
2021/06/11 00:26:00;;;;;;;19.30;11.43;;;;;;;23.06;41.27;101986.56;4158426;28;20033;-66
2021/06/11 00:28:01;;;;;;;21.48;11.63;;;;;;;22.73;41.91;101988.81;4157749;28;20160;-65
2021/06/11 00:30:07;;;;;;;19.80;11.85;;;;;;;22.73;41.75;101977.63;4155455;28;20041;-65
2021/06/11 00:32:07;;;;;;;17.63;10.45;;;;;;;22.93;41.12;101985.19;4153962;28;20053;-65
2021/06/11 00:34:08;;;;;;;16.70;9.80;;;;;;;22.93;41.39;101981.56;4153494;28;20079;-66
2021/06/11 00:36:08;;;;;;;23.38;12.13;;;;;;;22.77;41.44;101975.97;4155215;28;20029;-63
2021/06/11 00:38:09;;;;;;;18.10;10.35;;;;;;;22.93;41.28;101976.81;4141684;28;20025;-62
2021/06/11 00:40:11;;;;;;;16.95;10.13;;;;;;;22.53;41.81;101955.28;4154177;28;20443;-64
2021/06/11 00:42:11;;;;;;;21.52;11.10;;;;;;;22.35;42.53;101976.16;4147388;28;20042;-64
2021/06/11 00:44:11;;;;;;;17.10;10.20;;;;;;;22.68;41.69;101974.00;4155275;28;20029;-64
2021/06/11 00:46:12;;;;;;;16.05;9.32;;;;;;;22.95;40.80;101963.38;4153149;28;20796;-62
2021/06/11 00:48:12;;;;;;;18.13;9.25;;;;;;;23.32;39.95;101965.03;4154839;28;20029;-60
2021/06/11 00:50:17;;;;;;;17.50;9.85;;;;;;;22.66;41.46;101974.28;4154934;28;20044;-61
2021/06/11 00:52:17;;;;;;;16.38;9.32;;;;;;;22.91;41.13;101972.59;4158115;28;20029;-61
2021/06/11 00:54:18;;;;;;;18.70;9.82;;;;;;;22.90;41.12;101960.59;4157333;28;20041;-61
2021/06/11 00:56:20;;;;;;;17.73;10.00;;;;;;;22.63;41.75;101969.22;4155072;28;20040;-61
2021/06/11 00:58:20;;;;;;;16.73;9.48;;;;;;;22.83;41.04;101950.84;4158577;28;20025;-61
2021/06/11 01:00:21;;;;;;;15.80;9.48;;;;;;;23.12;40.50;101957.50;4154153;28;20061;-63
2021/06/11 01:02:22;;;;;;;16.00;9.27;;;;;;;22.52;41.63;101951.63;4158731;28;20126;-62
2021/06/11 01:04:22;;;;;;;17.15;9.48;;;;;;;22.65;41.69;101958.63;4159848;28;20040;-63
2021/06/11 01:06:25;;;;;;;17.10;9.40;;;;;;;22.50;41.88;101961.41;4154964;28;20120;-61
2021/06/11 01:08:26;;;;;;;14.90;9.40;;;;;;;22.55;41.79;101956.66;4153194;28;20436;-61
2021/06/11 01:10:27;;;;;;;14.60;8.93;;;;;;;22.63;41.85;101955.25;4156943;28;20107;-61
2021/06/11 01:12:28;;;;;;;15.02;10.38;;;;;;;22.30;42.48;101951.06;4155155;28;20112;-60
2021/06/11 01:14:30;;;;;;;12.20;8.77;;;;;;;22.60;41.70;101959.47;4149977;28;20123;-61
2021/06/11 01:16:30;;;;;;;13.23;8.63;;;;;;;22.09;42.59;101940.69;4153736;28;20041;-61
2021/06/11 01:18:31;;;;;;;14.20;9.85;;;;;;;22.14;42.56;101941.81;4156016;28;20452;-59
2021/06/11 01:20:32;;;;;;;13.75;9.52;;;;;;;22.39;42.42;101943.81;4155384;28;20500;-59
2021/06/11 01:23:10;;;;;;;12.82;9.40;;;;;;;21.99;43.26;101940.63;4152907;28;20037;-60
2021/06/11 01:25:14;;;;;;;13.13;9.27;;;;;;;21.86;43.60;101936.41;4155707;28;20041;-60
2021/06/11 01:27:15;;;;;;;13.23;9.35;;;;;;;22.13;42.89;101931.78;4154006;28;20472;-60
2021/06/11 01:29:28;;;;;;;13.02;9.65;;;;;;;22.43;42.37;101925.38;4140621;28;20037;-59
2021/06/11 01:31:31;;;;;;;13.27;9.73;;;;;;;22.21;42.55;101925.63;4157930;28;20109;-59
2021/06/11 01:33:33;;;;;;;11.48;8.43;;;;;;;22.68;41.39;101930.19;4158594;28;20037;-59
2021/06/11 01:35:48;;;;;;;10.48;7.88;;;;;;;22.37;42.19;101923.69;4153736;28;20517;-59
2021/06/11 01:37:57;;;;;;;11.93;8.45;;;;;;;22.31;42.48;101930.41;4151695;28;20034;-60
2021/06/11 01:39:59;;;;;;;10.98;7.68;;;;;;;22.43;42.06;101917.00;4156292;28;20415;-61
2021/06/11 01:42:00;;;;;;;11.75;8.10;;;;;;;22.43;42.10;101919.81;4153928;28;20042;-60
2021/06/11 01:44:02;;;;;;;9.88;8.27;;;;;;;22.33;42.32;101923.44;4152714;28;20056;-59
2021/06/11 01:46:03;;;;;;;9.38;6.65;;;;;;;22.41;41.79;101920.09;4153087;28;20040;-59
2021/06/11 01:48:04;;;;;;;12.73;8.90;;;;;;;21.56;43.92;101917.59;4149586;28;20046;-58
2021/06/11 01:50:07;;;;;;;10.18;7.78;;;;;;;21.68;43.98;101912.63;4156761;28;20907;-58
2021/06/11 01:52:08;;;;;;;13.35;8.98;;;;;;;21.41;44.93;101925.88;4145939;28;20060;-58
2021/06/11 01:54:11;;;;;;;11.98;9.27;;;;;;;21.80;43.78;101922.72;4154865;28;20041;-58
2021/06/11 01:56:14;;;;;;;12.48;8.93;;;;;;;21.44;44.81;101916.97;4152527;28;20449;-60
2021/06/11 01:58:16;;;;;;;12.93;9.23;;;;;;;21.81;43.90;101913.22;4151428;28;20048;-59
2021/06/11 02:00:18;;;;;;;13.07;9.10;;;;;;;21.53;44.12;101876.34;4154785;28;20072;-59
2021/06/11 02:02:20;;;;;;;12.55;8.35;;;;;;;22.23;42.94;101915.06;4150079;28;20034;-60
2021/06/11 02:04:21;;;;;;;11.68;8.93;;;;;;;22.19;42.73;101913.94;4154047;28;20048;-60
2021/06/11 02:06:22;;;;;;;13.07;9.95;;;;;;;21.57;44.33;101910.09;4153003;28;20031;-60
2021/06/11 02:08:23;;;;;;;14.07;10.60;;;;;;;21.16;45.52;101913.44;4157628;28;20116;-60
2021/06/11 02:10:25;;;;;;;13.30;9.95;;;;;;;21.35;44.89;101914.72;4153219;28;20049;-60
2021/06/11 02:12:25;;;;;;;12.57;10.32;;;;;;;21.56;44.62;101909.22;4148670;28;20044;-60
2021/06/11 02:14:26;;;;;;;11.77;9.73;;;;;;;21.51;44.59;101912.84;4153402;28;20540;-60
2021/06/11 02:16:29;;;;;;;14.57;10.35;;;;;;;20.98;45.61;101876.59;4154554;28;20039;-59
2021/06/11 02:18:31;;;;;;;14.77;10.55;;;;;;;21.23;45.39;101904.88;4152135;28;20602;-61
2021/06/11 02:20:31;;;;;;;13.55;10.63;;;;;;;21.09;45.64;101905.34;4159278;28;20431;-60
2021/06/11 02:22:33;;;;;;;14.15;10.27;;;;;;;21.19;45.37;101897.06;4149047;28;20096;-60
2021/06/11 02:24:33;;;;;;;12.88;9.82;;;;;;;21.84;43.97;101907.97;4155402;28;20050;-60
2021/06/11 02:26:37;;;;;;;14.00;9.73;;;;;;;21.43;45.01;101912.53;4158195;28;20075;-60
2021/06/11 02:28:39;;;;;;;13.85;9.68;;;;;;;21.43;44.67;101904.19;4157188;28;20127;-60
2021/06/11 02:30:39;;;;;;;9.50;7.88;;;;;;;21.79;44.11;101913.50;4155878;28;20087;-60
2021/06/11 02:32:40;;;;;;;12.15;9.48;;;;;;;21.48;44.74;101912.53;4156051;28;20037;-60
2021/06/11 02:34:40;;;;;;;12.68;9.73;;;;;;;21.41;45.02;101910.00;4150582;28;20489;-60
2021/06/11 02:36:41;;;;;;;12.60;9.73;;;;;;;21.16;45.79;101910.66;4156566;28;20030;-60
2021/06/11 02:38:41;;;;;;;12.70;8.35;;;;;;;21.54;44.57;101906.72;4159478;28;20124;-60
2021/06/11 02:40:42;;;;;;;11.98;9.27;;;;;;;21.72;44.35;101919.34;4158105;28;21010;-60
2021/06/11 02:42:46;;;;;;;11.75;8.77;;;;;;;21.40;45.22;101911.13;4154632;28;20661;-60
2021/06/11 02:44:50;;;;;;;13.45;9.13;;;;;;;21.41;45.25;101911.94;4157220;28;20116;-60
2021/06/11 02:46:53;;;;;;;12.68;9.38;;;;;;;21.09;45.94;101910.06;4155562;28;20055;-62
2021/06/11 02:49:04;;;;;;;14.38;9.70;;;;;;;20.95;46.83;101904.97;4159311;28;20048;-61
2021/06/11 02:51:10;;;;;;;13.23;8.55;;;;;;;21.48;45.13;101904.19;4159505;28;20026;-61
2021/06/11 02:53:11;;;;;;;13.45;9.73;;;;;;;21.02;46.39;101901.94;4158295;28;20087;-61
2021/06/11 02:55:15;;;;;;;15.18;10.70;;;;;;;20.77;47.19;101899.81;4159400;28;20085;-60
2021/06/11 02:57:23;;;;;;;12.80;9.18;;;;;;;21.38;45.36;101894.69;4158120;28;20473;-59
2021/06/11 02:59:30;;;;;;;12.05;9.43;;;;;;;21.42;45.35;101894.97;4156344;28;20472;-59
2021/06/11 03:01:35;;;;;;;12.95;9.52;;;;;;;21.55;44.91;101885.28;4156474;28;20029;-59
2021/06/11 03:03:39;;;;;;;13.80;9.30;;;;;;;21.20;45.62;101881.19;4151937;28;20034;-59
2021/06/11 03:05:41;;;;;;;10.88;7.65;;;;;;;21.85;44.08;101892.91;4161092;28;20129;-59
2021/06/11 03:07:44;;;;;;;12.25;9.10;;;;;;;21.18;46.08;101900.09;4156683;28;20800;-59
2021/06/11 03:09:45;;;;;;;12.55;8.40;;;;;;;21.11;46.28;101891.16;4156759;28;20166;-59
2021/06/11 03:11:48;;;;;;;11.90;8.88;;;;;;;21.38;45.47;101897.47;4156279;28;20037;-59
2021/06/11 03:13:50;;;;;;;11.95;9.02;;;;;;;21.14;46.41;101896.19;4158167;28;20029;-58
2021/06/11 03:15:51;;;;;;;15.25;9.95;;;;;;;21.09;46.56;101899.75;4158827;28;20037;-61
2021/06/11 03:17:55;;;;;;;13.70;9.25;;;;;;;20.93;46.68;101884.91;4158687;28;20038;-61
2021/06/11 03:20:02;;;;;;;12.05;8.52;;;;;;;21.08;46.02;101852.72;4152426;28;20033;-61
2021/06/11 03:22:10;;;;;;;11.90;8.98;;;;;;;21.08;46.56;101886.13;4155408;28;20037;-60
2021/06/11 03:24:36;;;;;;;13.85;9.25;;;;;;;20.83;47.38;101876.50;4156274;28;20033;-61
2021/06/11 03:27:06;;;;;;;15.68;10.43;;;;;;;20.59;48.25;101889.94;4159234;28;20762;-60
2021/06/11 03:29:10;;;;;;;12.77;9.07;;;;;;;20.58;48.19;101893.84;4150680;28;20459;-60
2021/06/11 03:31:20;;;;;;;14.70;10.18;;;;;;;20.64;47.77;101904.72;4155294;28;20024;-60
2021/06/11 03:33:23;;;;;;;15.02;10.18;;;;;;;20.70;47.29;101882.50;4153420;28;20087;-61
2021/06/11 03:35:40;;;;;;;15.93;10.20;;;;;;;20.52;48.36;101889.31;4155267;28;20030;-60
2021/06/11 03:37:41;;;;;;;11.60;8.50;;;;;;;20.96;47.08;101892.72;4159304;28;20124;-60
2021/06/11 03:39:51;;;;;;;14.88;10.52;;;;;;;20.99;47.10;101894.13;4158162;28;20029;-60
2021/06/11 03:41:52;;;;;;;14.35;10.63;;;;;;;20.51;48.49;101882.03;4151599;28;20045;-60
2021/06/11 03:43:53;;;;;;;12.82;8.88;;;;;;;20.92;47.36;101901.88;4157252;28;20505;-60
2021/06/11 03:45:57;;;;;;;13.20;9.50;;;;;;;21.21;46.08;101902.34;4156120;28;20037;-60
2021/06/11 03:48:02;;;;;;;14.32;9.57;;;;;;;21.02;47.16;101900.00;4156898;28;20106;-60
2021/06/11 03:50:04;;;;;;;13.30;9.02;;;;;;;21.26;46.17;101896.81;4155905;28;20591;-59
2021/06/11 03:52:05;;;;;;;15.25;10.48;;;;;;;21.08;46.72;101900.03;4155352;28;20040;-59
2021/06/11 03:54:08;;;;;;;11.23;8.48;;;;;;;21.62;44.97;101896.16;4160078;28;20033;-59
2021/06/11 03:56:10;;;;;;;13.85;9.68;;;;;;;21.38;45.61;101905.81;4156785;28;20029;-59
2021/06/11 03:58:12;;;;;;;13.57;9.95;;;;;;;21.55;45.13;101897.25;4158653;28;20116;-59
2021/06/11 04:00:13;;;;;;;16.95;10.88;;;;;;;20.88;46.85;101892.38;4158227;28;20087;-60
2021/06/11 04:02:15;;;;;;;17.48;11.18;;;;;;;21.01;46.96;101903.88;4157353;28;20034;-60
2021/06/11 04:04:16;;;;;;;14.00;9.52;;;;;;;21.54;45.52;101908.69;4156279;28;20036;-60
2021/06/11 04:06:20;;;;;;;16.60;10.55;;;;;;;21.18;46.34;101895.38;4158219;28;20029;-54
2021/06/11 04:08:24;;;;;;;19.30;12.63;;;;;;;21.09;46.73;101912.84;4151895;28;20483;-50
2021/06/11 04:10:30;;;;;;;20.05;12.63;;;;;;;21.00;47.24;101910.56;4152174;28;20419;-53
2021/06/11 04:12:43;;;;;;;19.73;12.57;;;;;;;21.11;46.78;101914.25;4155018;28;20034;-51
2021/06/11 04:14:48;;;;;;;27.67;14.20;;;;;;;20.90;47.88;101904.06;4158464;28;20488;-49
2021/06/11 04:16:50;;;;;;;24.73;14.30;;;;;;;20.98;47.14;101898.03;4158250;28;20041;-51
2021/06/11 04:18:55;;;;;;;26.48;14.95;;;;;;;21.16;47.27;101916.22;4153295;28;20046;-54
2021/06/11 04:20:59;;;;;;;28.48;15.82;;;;;;;20.76;48.47;101906.47;4155953;28;20037;-51
2021/06/11 04:23:02;;;;;;;32.17;17.98;;;;;;;20.20;49.97;101901.22;4155038;28;20029;-54
2021/06/11 04:25:05;;;;;;;31.85;17.50;;;;;;;20.43;49.51;101902.84;4155547;28;20080;-55
2021/06/11 04:27:06;;;;;;;33.15;17.92;;;;;;;20.65;48.93;101906.41;4158756;28;20065;-56
2021/06/11 04:29:09;;;;;;;28.27;16.45;;;;;;;20.86;48.14;101916.88;4157624;28;20033;-58
2021/06/11 04:31:10;;;;;;;26.50;16.25;;;;;;;20.84;48.30;101911.56;4160183;28;20026;-58
2021/06/11 04:33:22;;;;;;;31.67;17.88;;;;;;;20.56;49.63;101904.34;4156425;28;20167;-58
2021/06/11 04:35:24;;;;;;;29.45;16.83;;;;;;;20.83;48.58;101898.75;4156949;28;20021;-58
2021/06/11 04:37:25;;;;;;;27.98;16.20;;;;;;;20.98;48.13;101898.88;4155384;28;20038;-58
2021/06/11 04:39:25;;;;;;;26.15;16.38;;;;;;;21.05;47.45;101906.13;4155569;28;20026;-58
2021/06/11 04:41:28;;;;;;;31.33;17.63;;;;;;;21.20;47.24;101912.63;4150218;28;20046;-58
2021/06/11 04:43:28;;;;;;;30.77;17.30;;;;;;;21.04;47.72;101913.66;4153407;28;20021;-60
2021/06/11 04:45:28;;;;;;;26.27;16.23;;;;;;;20.78;48.59;101913.47;4154110;28;20041;-60
2021/06/11 04:47:29;;;;;;;27.20;14.98;;;;;;;21.23;47.17;101905.69;4134972;28;20046;-60
2021/06/11 04:49:31;;;;;;;27.80;16.27;;;;;;;20.91;48.71;101914.13;4152834;28;20039;-60
2021/06/11 04:51:31;;;;;;;27.48;15.80;;;;;;;21.02;48.09;101897.22;4155086;28;20034;-60
2021/06/11 04:53:32;;;;;;;24.95;16.42;;;;;;;20.84;48.90;101909.63;4151666;28;20061;-60
2021/06/11 04:55:32;;;;;;;25.50;15.52;;;;;;;20.81;48.69;101893.44;4153853;28;20504;-60
2021/06/11 04:57:33;;;;;;;26.02;16.25;;;;;;;20.70;49.48;101905.63;4155086;28;20041;-59
2021/06/11 04:59:33;;;;;;;26.60;15.82;;;;;;;20.67;49.24;101898.63;4156521;28;20055;-59
2021/06/11 05:01:33;;;;;;;24.30;15.35;;;;;;;20.79;49.04;101898.47;4156913;28;20052;-60
2021/06/11 05:03:35;;;;;;;22.15;14.63;;;;;;;20.96;48.53;101912.22;4156069;28;20048;-60
2021/06/11 05:05:35;;;;;;;21.10;13.57;;;;;;;20.83;48.74;101902.38;4156011;28;20247;-60
2021/06/11 05:07:37;;;;;;;24.42;14.52;;;;;;;20.93;48.36;101911.91;4149343;28;20034;-60
2021/06/11 05:09:37;;;;;;;23.88;15.05;;;;;;;20.66;49.61;101908.06;4151696;28;20037;-60
2021/06/11 05:11:38;;;;;;;21.13;14.48;;;;;;;20.52;50.07;101901.25;4152746;28;20030;-59
2021/06/11 05:13:38;;;;;;;24.02;14.43;;;;;;;20.36;50.06;101891.09;4153876;28;20042;-59
2021/06/11 05:15:39;;;;;;;24.30;14.27;;;;;;;20.65;49.39;101903.63;4139390;28;20030;-59
2021/06/11 05:17:39;;;;;;;20.77;13.38;;;;;;;20.87;48.86;101902.69;4156493;28;20021;-60
2021/06/11 05:19:41;;;;;;;21.05;12.57;;;;;;;20.85;48.88;101904.88;4139589;28;20026;-59
2021/06/11 05:21:41;;;;;;;20.75;12.57;;;;;;;20.89;48.81;101913.56;4154260;28;20037;-60
2021/06/11 05:23:42;;;;;;;18.58;11.82;;;;;;;20.39;50.30;101899.75;4152625;28;20033;-59
2021/06/11 05:25:42;;;;;;;16.35;11.52;;;;;;;20.45;49.93;101909.81;4154201;28;20056;-59
2021/06/11 05:27:43;;;;;;;14.98;9.95;;;;;;;20.57;49.86;101909.66;4151660;28;20041;-59
2021/06/11 05:29:43;;;;;;;12.65;8.88;;;;;;;20.99;48.30;101916.38;4157206;28;20055;-59
2021/06/11 05:31:44;;;;;;;14.82;9.98;;;;;;;20.56;49.49;101916.31;4154434;28;20053;-59
2021/06/11 05:33:44;;;;;;;14.80;10.40;;;;;;;21.08;48.29;101913.94;4154798;28;20033;-59
2021/06/11 05:35:45;;;;;;;15.55;10.25;;;;;;;20.84;48.78;101912.41;4158656;28;20458;-63
2021/06/11 05:37:45;;;;;;;15.30;10.20;;;;;;;20.53;49.88;101914.06;4154710;28;20541;-60
2021/06/11 05:39:46;;;;;;;15.40;10.93;;;;;;;20.39;50.34;101913.66;4155772;28;20079;-60
2021/06/11 05:41:46;;;;;;;14.80;10.80;;;;;;;20.30;50.87;101913.28;4155200;28;20519;-60
2021/06/11 05:43:49;;;;;;;15.60;10.68;;;;;;;20.52;50.07;101912.38;4155715;28;20033;-61
2021/06/11 05:45:50;;;;;;;13.27;10.48;;;;;;;20.51;50.01;101910.69;4156535;28;20044;-61
2021/06/11 05:47:50;;;;;;;13.13;9.70;;;;;;;20.71;49.35;101910.06;4154689;28;20029;-61
2021/06/11 05:49:51;;;;;;;19.25;10.48;;;;;;;20.36;50.61;101907.75;4156611;28;20033;-58
2021/06/11 05:51:51;;;;;;;15.15;9.35;;;;;;;20.71;49.38;101912.00;4160993;28;20029;-59
2021/06/11 05:53:55;;;;;;;13.93;9.13;;;;;;;20.45;49.77;101897.84;4159469;28;20040;-59
2021/06/11 05:55:55;;;;;;;12.82;9.25;;;;;;;20.52;49.68;101895.69;4161808;28;20033;-58
2021/06/11 05:57:56;;;;;;;12.60;8.75;;;;;;;20.66;49.54;101910.03;4161325;28;20141;-58
2021/06/11 05:59:57;;;;;;;12.18;8.85;;;;;;;20.46;50.09;101924.56;4159182;28;20049;-59
2021/06/11 06:01:57;;;;;;;10.30;7.90;;;;;;;20.60;49.47;101920.25;4164209;28;20040;-58
2021/06/11 06:03:58;;;;;;;10.07;7.88;;;;;;;20.56;49.79;101921.03;4158408;28;20038;-59
2021/06/11 06:05:58;;;;;;;14.95;8.23;;;;;;;20.57;49.88;101928.28;4160986;28;20025;-59
2021/06/11 06:07:59;;;;;;;11.82;8.88;;;;;;;20.47;50.14;101929.03;4155126;28;20037;-59
2021/06/11 06:09:59;;;;;;;9.13;8.18;;;;;;;20.51;49.94;101929.31;4158985;28;20038;-58
2021/06/11 06:11:59;;;;;;;10.38;7.93;;;;;;;20.29;50.47;101925.50;4163196;28;20029;-58
2021/06/11 06:14:00;;;;;;;8.93;7.05;;;;;;;20.16;51.32;101925.94;4157472;28;20037;-56
2021/06/11 06:16:00;;;;;;;10.13;7.35;;;;;;;20.19;51.13;101930.97;4161772;28;20025;-57
2021/06/11 06:18:01;;;;;;;8.30;7.22;;;;;;;20.21;51.05;101920.41;4161718;28;20087;-57
2021/06/11 06:20:13;;;;;;;10.27;7.28;;;;;;;20.52;49.94;101934.63;4159142;28;20033;-59
2021/06/11 06:22:13;;;;;;;7.85;6.38;;;;;;;20.37;50.42;101940.03;4159514;28;20030;-58
2021/06/11 06:24:14;;;;;;;9.10;7.18;;;;;;;20.24;50.76;101932.97;4159174;28;20053;-59
2021/06/11 06:26:14;;;;;;;6.78;6.07;;;;;;;20.09;51.33;101939.19;4160640;28;20060;-62
2021/06/11 06:28:15;;;;;;;6.63;5.65;;;;;;;20.28;50.70;101934.97;4157893;28;20502;-63
2021/06/11 06:30:16;;;;;;;7.05;5.80;;;;;;;20.58;49.79;101930.81;4159570;28;20699;-54
2021/06/11 06:32:16;;;;;;;7.35;6.35;;;;;;;20.36;50.29;101933.66;4155974;28;20026;-58
2021/06/11 06:34:16;;;;;;;6.03;5.38;;;;;;;20.35;50.22;101943.09;4153337;28;20118;-58
2021/06/11 06:36:17;;;;;;;7.30;6.03;;;;;;;20.34;50.29;101940.56;4157149;28;20409;-59
2021/06/11 06:38:17;;;;;;;7.25;6.38;;;;;;;20.57;49.57;101943.03;4155510;28;20034;-58
2021/06/11 06:40:18;;;;;;;6.80;5.82;;;;;;;20.39;49.43;101915.59;4157880;28;20546;-58
2021/06/11 06:42:18;;;;;;;8.35;6.30;;;;;;;20.53;49.79;101950.22;4158203;28;20474;-58
2021/06/11 06:44:19;;;;;;;8.25;6.15;;;;;;;20.46;49.92;101946.81;4155169;28;20084;-54
2021/06/11 06:46:22;;;;;;;9.02;5.28;;;;;;;21.02;48.48;101943.69;4152711;28;20090;-50
2021/06/11 06:48:23;;;;;;;7.15;5.40;;;;;;;21.32;47.46;101942.28;4156119;28;20544;-57
2021/06/11 06:50:23;;;;;;;10.57;4.78;;;;;;;21.43;47.11;101935.63;4150084;28;20042;-55
2021/06/11 06:52:24;;;;;;;6.07;4.53;;;;;;;21.47;46.90;101925.66;4153986;28;20062;-53
2021/06/11 06:54:24;;;;;;;7.88;4.53;;;;;;;21.51;47.00;101934.28;4153554;28;20160;-52
2021/06/11 06:56:25;;;;;;;7.10;4.57;;;;;;;21.52;46.96;101934.00;4160657;28;20476;-51
2021/06/11 06:58:26;;;;;;;4.55;3.78;;;;;;;21.52;46.53;101931.22;4158755;28;20423;-49
2021/06/11 07:00:26;;;;;;;8.13;4.15;;;;;;;21.68;46.65;101923.78;4162864;28;20037;-53
2021/06/11 07:02:27;;;;;;;6.50;4.25;;;;;;;21.71;46.26;101931.59;4160796;28;20041;-50
2021/06/11 07:04:28;;;;;;;9.77;3.80;;;;;;;21.83;46.44;101930.53;4155399;28;20058;-56
2021/06/11 07:06:28;;;;;;;4.53;4.03;;;;;;;21.86;46.55;101936.41;4157219;28;20072;-52
2021/06/11 07:08:31;;;;;;;7.68;3.58;;;;;;;21.77;46.17;101918.53;4156632;28;20030;-50
2021/06/11 07:10:32;;;;;;;4.93;3.78;;;;;;;22.00;46.08;101941.50;4155183;28;21029;-50
2021/06/11 07:12:32;;;;;;;6.88;4.05;;;;;;;22.01;46.21;101943.16;4161169;28;20167;-53
2021/06/11 07:14:33;;;;;;;7.72;3.55;;;;;;;21.96;45.85;101932.78;4155616;28;20088;-52
2021/06/11 07:16:33;;;;;;;7.38;3.40;;;;;;;22.05;46.36;101945.13;4158448;28;20041;-50
2021/06/11 07:18:34;;;;;;;5.80;3.00;;;;;;;22.01;46.18;101932.88;4158629;28;20037;-49
2021/06/11 07:20:34;;;;;;;4.28;3.38;;;;;;;22.04;46.38;101937.88;4154164;28;20570;-55
2021/06/11 07:22:35;;;;;;;4.20;3.55;;;;;;;22.16;46.15;101942.38;4155818;28;20567;-53
2021/06/11 07:24:37;;;;;;;3.92;3.33;;;;;;;22.14;46.28;101939.03;4157881;28;20031;-53
2021/06/11 07:26:38;;;;;;;6.57;3.75;;;;;;;22.18;46.16;101941.00;4156315;28;20471;-54
2021/06/11 07:28:39;;;;;;;11.98;3.50;;;;;;;22.21;45.92;101932.06;4159280;28;20040;-51
2021/06/11 07:30:39;;;;;;;4.70;3.13;;;;;;;22.17;46.58;101930.13;4155547;28;20150;-53
2021/06/11 07:32:42;;;;;;;4.47;3.45;;;;;;;22.31;45.83;101930.41;4158032;28;20116;-52
2021/06/11 07:34:43;;;;;;;8.07;4.10;;;;;;;22.35;45.65;101929.56;4159465;28;20038;-54
2021/06/11 07:36:45;;;;;;;5.22;3.47;;;;;;;22.28;45.62;101912.28;4153976;28;20112;-54
2021/06/11 07:38:45;;;;;;;3.88;3.47;;;;;;;22.35;45.80;101939.88;4155240;28;20357;-50
2021/06/11 07:40:46;;;;;;;5.78;3.28;;;;;;;22.41;45.69;101931.25;4156068;28;20492;-53
2021/06/11 07:42:46;;;;;;;3.20;2.90;;;;;;;22.34;45.63;101933.47;4152004;28;20045;-50
2021/06/11 07:44:47;;;;;;;5.72;2.95;;;;;;;22.38;45.67;101939.34;4152055;28;20036;-50
2021/06/11 07:46:47;;;;;;;4.32;3.10;;;;;;;22.45;45.48;101935.16;4135626;28;20034;-48
2021/06/11 07:48:49;;;;;;;4.20;3.72;;;;;;;22.54;45.71;101956.94;4152150;28;20345;-48
2021/06/11 07:50:49;;;;;;;5.35;3.53;;;;;;;22.27;45.90;101924.53;4139179;28;20526;-49
2021/06/11 07:52:50;;;;;;;3.95;3.30;;;;;;;22.42;46.07;101952.47;4153766;28;20026;-46
2021/06/11 07:54:50;;;;;;;8.68;3.85;;;;;;;22.53;45.81;101958.88;4154048;28;20037;-48
2021/06/11 07:56:51;;;;;;;7.60;3.90;;;;;;;22.55;45.65;101959.44;4152489;28;20468;-51
2021/06/11 07:58:51;;;;;;;6.32;3.65;;;;;;;22.54;45.50;101954.13;4153205;28;20045;-48
2021/06/11 08:00:52;;;;;;;6.55;4.35;;;;;;;22.57;45.73;101951.66;4155201;28;20033;-47
2021/06/11 08:02:54;;;;;;;6.38;4.00;;;;;;;22.53;45.80;101947.72;4154781;28;20126;-50
2021/06/11 08:04:55;;;;;;;4.18;3.17;;;;;;;22.62;45.99;101957.22;4153619;28;20034;-47
2021/06/11 08:06:55;;;;;;;5.22;4.18;;;;;;;22.63;45.71;101966.41;4155802;28;20087;-52
2021/06/11 08:08:56;;;;;;;5.45;4.05;;;;;;;22.61;45.82;101963.91;4154209;28;20129;-57
2021/06/11 08:10:57;;;;;;;5.70;4.10;;;;;;;22.65;45.44;101960.56;4153082;28;20045;-53
2021/06/11 08:12:57;;;;;;;5.40;4.43;;;;;;;22.67;45.59;101958.38;4154283;28;20029;-48
2021/06/11 08:14:58;;;;;;;5.20;4.10;;;;;;;22.76;45.56;101962.28;4151076;28;20203;-47
2021/06/11 08:16:58;;;;;;;7.32;4.45;;;;;;;22.66;45.67;101962.28;4153498;28;20033;-48
2021/06/11 08:18:59;;;;;;;4.25;3.78;;;;;;;22.80;45.11;101964.25;4151805;28;20032;-49
2021/06/11 08:20:59;;;;;;;5.07;3.90;;;;;;;22.73;45.51;101957.28;4153295;28;20470;-49
2021/06/11 08:22:59;;;;;;;7.38;4.57;;;;;;;22.69;45.43;101976.50;4157635;28;20029;-53
2021/06/11 08:25:00;;;;;;;4.18;3.80;;;;;;;22.82;45.58;101963.13;4154288;28;20041;-52
2021/06/11 08:27:00;;;;;;;5.40;4.20;;;;;;;22.81;45.27;101976.25;4158889;28;20036;-53
2021/06/11 08:29:01;;;;;;;5.68;4.47;;;;;;;22.80;45.41;101955.00;4153914;28;20033;-53
2021/06/11 08:31:01;;;;;;;5.70;4.43;;;;;;;22.78;45.13;101958.09;4156166;28;20428;-51
2021/06/11 08:33:02;;;;;;;4.78;4.03;;;;;;;22.90;45.11;101955.03;4156873;28;20072;-50
2021/06/11 08:35:05;;;;;;;5.55;3.88;;;;;;;22.86;45.05;101955.88;4155489;28;20095;-53
2021/06/11 08:37:07;;;;;;;8.50;3.78;;;;;;;22.86;45.34;101955.88;4156603;28;20393;-55
2021/06/11 08:39:07;;;;;;;4.28;3.60;;;;;;;22.91;45.01;101953.06;4153433;28;20553;-54
2021/06/11 08:41:10;;;;;;;4.15;3.75;;;;;;;22.91;45.13;101955.84;4154759;28;20037;-57
2021/06/11 08:43:14;;;;;;;6.13;3.88;;;;;;;23.00;44.69;101964.50;4155311;28;20048;-55
2021/06/11 08:45:16;;;;;;;4.80;3.80;;;;;;;23.01;45.21;101964.22;4155872;28;20037;-53
2021/06/11 08:47:17;;;;;;;7.22;5.03;;;;;;;22.75;44.53;101963.41;4156048;28;20152;-56
2021/06/11 08:49:18;;;;;;;5.03;4.53;;;;;;;22.18;45.95;101973.59;4156416;28;20049;-56
2021/06/11 08:51:18;;;;;;;5.35;4.85;;;;;;;22.15;46.14;101971.34;4153194;28;20048;-54
2021/06/11 08:53:19;;;;;;;5.78;4.60;;;;;;;21.94;46.52;101971.28;4156818;28;20087;-56
2021/06/11 08:55:20;;;;;;;5.18;4.15;;;;;;;21.95;46.26;101967.38;4155255;28;20033;-55
2021/06/11 08:57:22;;;;;;;6.45;4.18;;;;;;;21.92;46.18;101965.97;4153229;28;20154;-56
2021/06/11 08:59:23;;;;;;;5.60;4.45;;;;;;;22.29;45.53;101964.16;4159098;28;20037;-48
2021/06/11 09:01:23;;;;;;;5.00;4.22;;;;;;;22.72;44.16;101970.38;4155746;28;20033;-52
2021/06/11 09:03:35;;;;;;;5.10;4.00;;;;;;;22.83;44.05;101960.03;4155480;28;20511;-48
2021/06/11 09:06:04;;;;;;;6.93;3.85;;;;;;;22.96;43.82;101965.06;4155999;28;20057;-54
2021/06/11 09:08:19;;;;;;;3.88;3.33;;;;;;;22.99;44.03;101966.47;4154511;28;20050;-57
2021/06/11 09:10:23;;;;;;;6.10;3.70;;;;;;;23.07;44.08;101967.88;4159015;28;20125;-59
2021/06/11 09:12:31;;;;;;;3.70;3.40;;;;;;;23.12;43.53;101963.09;4155686;28;20033;-58
2021/06/11 09:14:32;;;;;;;3.83;2.90;;;;;;;23.22;43.67;101967.84;4158801;28;20040;-57
2021/06/11 09:16:51;;;;;;;6.10;3.35;;;;;;;23.24;43.48;101965.59;4156405;28;20041;-59
2021/06/11 09:18:52;;;;;;;5.60;3.67;;;;;;;23.26;43.72;101965.31;4155404;28;20482;-56
2021/06/11 09:20:53;;;;;;;3.95;3.42;;;;;;;23.28;43.71;101969.50;4151438;28;20032;-58
2021/06/11 09:22:55;;;;;;;7.10;3.38;;;;;;;23.26;43.93;101977.31;4154673;28;20148;-58